createdAt,value
2019-03-27T00:02:13.990Z,12.13
2019-03-27T00:04:43.776Z,16.03
2019-03-27T00:07:13.607Z,10.10
2019-03-27T00:09:43.365Z,13.70
2019-03-27T00:12:13.277Z,23.13
2019-03-27T00:14:43.133Z,11.93
2019-03-27T00:17:12.994Z,8.37
2019-03-27T00:19:49.876Z,10.80
2019-03-27T00:22:18.210Z,10.90
2019-03-27T00:24:48.690Z,11.73
2019-03-27T00:27:18.535Z,12.57
2019-03-27T00:29:48.554Z,14.17
2019-03-27T00:32:18.275Z,15.77
2019-03-27T00:34:48.149Z,12.07
2019-03-27T00:37:18.144Z,10.37
2019-03-27T00:39:47.885Z,14.33
2019-03-27T00:42:17.758Z,12.17
2019-03-27T00:44:47.715Z,8.20
2019-03-27T00:47:17.486Z,13.50
2019-03-27T00:49:47.391Z,10.20
2019-03-27T00:52:17.226Z,11.17
2019-03-27T00:54:48.850Z,8.10
2019-03-27T00:57:24.585Z,10.50
2019-03-27T00:59:54.498Z,9.87
2019-03-27T01:02:24.418Z,10.60
2019-03-27T01:04:54.343Z,14.27
2019-03-27T01:07:24.828Z,8.87
2019-03-27T01:09:54.754Z,11.20
2019-03-27T01:12:26.084Z,9.63
2019-03-27T01:14:55.946Z,13.57
2019-03-27T01:17:25.841Z,9.37
2019-03-27T01:19:55.809Z,14.10
2019-03-27T01:22:25.746Z,12.53
2019-03-27T01:24:55.702Z,14.63
2019-03-27T01:27:25.671Z,10.30
2019-03-27T01:29:55.565Z,11.13
2019-03-27T01:32:25.490Z,14.57
2019-03-27T01:34:55.338Z,16.00
2019-03-27T01:37:25.288Z,12.03
2019-03-27T01:39:55.160Z,13.53
2019-03-27T01:42:25.133Z,14.30
2019-03-27T01:44:55.047Z,14.40
2019-03-27T01:47:25.099Z,13.37
2019-03-27T01:49:57.329Z,11.47
2019-03-27T01:52:27.309Z,9.90
2019-03-27T01:54:58.540Z,9.70
2019-03-27T01:57:28.353Z,8.30
2019-03-27T01:59:58.395Z,12.10
2019-03-27T02:02:28.238Z,15.80
2019-03-27T02:04:58.189Z,12.87
2019-03-27T02:07:28.109Z,11.60
2019-03-27T02:09:57.945Z,12.77
2019-03-27T02:12:27.768Z,15.40
2019-03-27T12:33:23.968Z,6.83
2019-03-27T12:35:53.789Z,7.33
2019-03-27T12:38:23.581Z,7.25
2019-03-27T12:40:53.327Z,6.62
2019-03-27T12:43:23.227Z,8.98
2019-03-27T12:45:53.064Z,8.48
2019-03-27T12:48:22.939Z,9.15
2019-03-27T12:50:52.686Z,5.17
2019-03-27T12:53:22.420Z,8.93
2019-03-27T12:55:52.174Z,10.15
2019-03-27T12:58:21.935Z,6.87
2019-03-27T13:00:51.741Z,6.30
2019-03-27T13:03:21.552Z,7.58
2019-03-27T13:05:51.304Z,4.47
2019-03-27T13:08:21.068Z,18.30
2019-03-27T13:10:50.823Z,6.25
2019-03-27T13:13:20.643Z,7.50
2019-03-27T13:15:50.458Z,7.50
2019-03-27T13:18:20.302Z,6.33
2019-03-27T13:20:50.042Z,8.83
2019-03-27T13:23:19.898Z,8.93
2019-03-27T13:25:49.558Z,7.42
2019-03-27T13:28:19.744Z,6.47
2019-03-27T13:30:49.610Z,10.15
2019-03-27T13:33:19.347Z,4.90
2019-03-27T13:35:49.206Z,11.45
2019-03-27T13:38:18.990Z,6.87
2019-03-27T13:40:48.765Z,16.67
2019-03-27T13:43:37.396Z,10.30
2019-03-27T13:46:07.145Z,6.55
2019-03-27T13:48:36.965Z,4.80
2019-03-27T13:51:06.744Z,4.78
2019-03-27T13:53:36.587Z,3.87
2019-03-27T13:56:06.373Z,8.40
2019-03-27T13:58:36.185Z,8.15
2019-03-27T14:01:08.741Z,17.60
2019-03-27T14:03:37.441Z,10.55
2019-03-27T14:06:07.198Z,8.53
2019-03-27T14:08:36.990Z,4.83
2019-03-27T14:11:06.828Z,6.22
2019-03-27T14:13:36.822Z,5.40
2019-03-27T14:16:07.312Z,7.45
2019-03-27T14:18:37.063Z,5.33
2019-03-27T14:21:06.783Z,8.45
2019-03-27T14:23:36.449Z,7.00
2019-03-27T14:26:06.219Z,7.12
2019-03-27T14:28:36.052Z,6.25
2019-03-27T14:31:05.808Z,4.28
2019-03-27T14:33:35.551Z,6.15
2019-03-27T14:36:05.457Z,5.80
2019-03-27T14:38:35.252Z,4.70
2019-03-27T14:41:05.056Z,4.80
2019-03-27T14:43:35.898Z,5.95
2019-03-27T14:46:05.706Z,7.65
2019-03-27T14:48:35.559Z,5.37
2019-03-27T14:51:05.369Z,7.12
2019-03-27T14:53:35.094Z,5.15
2019-03-27T14:56:04.869Z,5.72
2019-03-27T14:58:34.654Z,5.62
2019-03-27T15:01:04.480Z,5.90
2019-03-27T15:03:34.644Z,8.45
2019-03-27T15:06:04.378Z,8.63
2019-03-27T15:08:34.213Z,5.17
2019-03-27T15:11:04.030Z,8.70
2019-03-27T15:13:33.877Z,4.83
2019-03-27T15:16:03.743Z,5.60
2019-03-27T15:18:33.476Z,6.87
2019-03-27T15:21:03.171Z,3.75
2019-03-27T15:23:32.985Z,7.62
2019-03-27T15:26:03.141Z,4.45
2019-03-27T15:28:32.998Z,6.65
2019-03-27T15:31:02.736Z,4.22
2019-03-27T15:33:32.599Z,6.08
2019-03-27T15:36:02.417Z,5.35
2019-03-27T15:38:32.308Z,4.97
2019-03-27T15:41:02.099Z,5.40
2019-03-27T15:43:31.946Z,3.65
2019-03-27T15:46:01.689Z,4.05
2019-03-27T15:48:31.445Z,5.00
2019-03-27T15:51:01.213Z,8.50
2019-03-27T15:53:31.024Z,4.03
2019-03-27T15:56:01.226Z,4.75
2019-03-27T15:58:30.976Z,4.97
2019-03-27T16:01:00.787Z,6.05
2019-03-27T16:03:30.587Z,6.83
2019-03-27T16:06:00.384Z,8.50
2019-03-27T16:08:30.183Z,5.15
2019-03-27T16:10:59.994Z,7.72
2019-03-27T16:13:29.991Z,5.85
2019-03-27T16:15:59.748Z,5.55
2019-03-27T16:18:29.978Z,6.30
2019-03-27T16:21:00.158Z,4.62
2019-03-27T16:23:32.342Z,2.60
2019-03-27T16:26:02.204Z,8.50
2019-03-27T16:28:32.301Z,4.42
2019-03-27T16:31:04.717Z,5.22
2019-03-27T16:33:34.984Z,3.22
2019-03-27T16:36:05.195Z,2.52
2019-03-27T16:38:35.342Z,4.62
2019-03-27T16:41:05.560Z,3.65
2019-03-27T16:43:35.726Z,3.10
2019-03-27T16:46:05.834Z,2.50
2019-03-27T16:48:35.908Z,2.80
2019-03-27T16:51:06.035Z,4.00
2019-03-27T16:53:36.183Z,4.90
2019-03-27T16:56:06.424Z,2.80
2019-03-27T16:58:36.441Z,3.98
2019-03-27T17:01:06.651Z,3.58
2019-03-27T17:03:36.477Z,4.33
2019-03-27T17:06:06.259Z,4.28
2019-03-27T17:08:36.001Z,3.77
2019-03-27T17:11:08.086Z,5.05
2019-03-27T17:13:42.186Z,5.03
2019-03-27T17:16:12.079Z,5.15
2019-03-27T17:18:41.715Z,3.42
2019-03-27T17:21:11.454Z,6.20
2019-03-27T17:23:41.152Z,4.85
2019-03-27T17:26:10.945Z,4.53
2019-03-27T17:28:40.800Z,3.95
2019-03-27T17:31:10.752Z,3.08
2019-03-27T17:33:40.663Z,3.75
2019-03-27T17:36:10.472Z,3.80
2019-03-27T17:38:40.193Z,5.50
2019-03-27T17:41:09.906Z,6.03
2019-03-27T17:43:39.737Z,4.33
2019-03-27T17:46:12.018Z,3.63
2019-03-27T17:48:41.782Z,4.08
2019-03-27T17:51:11.532Z,3.50
2019-03-27T17:53:41.254Z,3.47
2019-03-27T17:56:11.019Z,5.55
2019-03-27T17:58:40.767Z,4.65
2019-03-27T18:01:10.526Z,5.23
2019-03-27T18:03:40.508Z,5.40
2019-03-27T18:06:10.359Z,7.25
2019-03-27T18:08:40.273Z,5.28
2019-03-27T18:11:10.078Z,4.85
2019-03-27T18:13:39.919Z,6.35
2019-03-27T18:16:09.878Z,4.87
2019-03-27T18:18:39.735Z,5.90
2019-03-27T18:21:09.514Z,4.53
2019-03-27T18:23:46.396Z,4.83
2019-03-27T18:26:12.101Z,6.03
2019-03-27T18:28:42.079Z,4.83
2019-03-27T18:31:11.920Z,5.87
2019-03-27T18:33:41.827Z,5.20
2019-03-27T18:36:11.595Z,5.25
2019-03-27T18:38:41.410Z,4.97
2019-03-27T18:41:11.191Z,4.65
2019-03-27T18:43:41.054Z,6.40
2019-03-27T18:46:10.885Z,5.07
2019-03-27T18:48:42.629Z,5.35
2019-03-27T18:51:12.513Z,7.03
2019-03-27T18:53:42.448Z,6.08
2019-03-27T18:56:12.183Z,5.30
2019-03-27T18:58:41.979Z,6.80
2019-03-27T19:01:11.722Z,5.90
2019-03-27T19:03:41.473Z,7.80
2019-03-27T19:06:11.222Z,6.85
2019-03-27T19:08:41.049Z,5.30
2019-03-27T19:11:10.903Z,7.67
2019-03-27T19:13:40.711Z,5.25
2019-03-27T19:16:15.185Z,6.65
2019-03-27T19:18:45.023Z,5.70
2019-03-27T19:21:15.112Z,5.10
2019-03-27T19:23:44.923Z,5.22
2019-03-27T19:26:14.694Z,6.10
2019-03-27T19:28:44.467Z,5.28
2019-03-27T19:31:14.310Z,7.35
2019-03-27T19:33:44.113Z,8.20
2019-03-27T19:36:13.863Z,7.33
2019-03-27T19:38:44.994Z,6.87
2019-03-27T19:41:14.780Z,5.28
2019-03-27T19:43:44.751Z,11.20
2019-03-27T19:46:14.652Z,4.65
2019-03-27T19:48:44.445Z,4.87
2019-03-27T19:51:14.312Z,5.90
2019-03-27T19:53:44.138Z,5.97
2019-03-27T19:56:14.014Z,6.87
2019-03-27T19:58:43.875Z,10.28
2019-03-27T20:01:13.660Z,5.80
2019-03-27T20:03:43.744Z,4.67
2019-03-27T20:06:13.506Z,5.53
2019-03-27T20:08:43.271Z,6.30
2019-03-27T20:11:13.056Z,7.90
2019-03-27T20:13:42.822Z,4.40
2019-03-27T20:16:12.669Z,4.70
2019-03-27T20:18:42.463Z,8.85
2019-03-27T20:21:12.266Z,9.05
2019-03-27T20:23:42.202Z,7.92
2019-03-27T20:26:11.980Z,7.10
2019-03-27T20:28:41.658Z,8.45
2019-03-27T20:31:11.413Z,10.40
2019-03-27T20:33:41.218Z,6.97
2019-03-27T20:36:13.263Z,5.97
2019-03-27T20:38:43.147Z,6.33
2019-03-27T20:41:18.974Z,8.07
2019-03-27T20:43:48.794Z,5.60
2019-03-27T20:46:26.358Z,7.72
2019-03-27T20:48:51.513Z,9.15
2019-03-27T20:51:21.430Z,7.75
2019-03-27T20:53:51.238Z,6.83
2019-03-27T20:56:21.004Z,5.92
2019-03-27T20:58:50.726Z,5.42
2019-03-27T21:01:20.551Z,4.70
2019-03-27T21:03:50.388Z,6.73
2019-03-27T21:06:20.200Z,9.13
2019-03-27T21:08:50.095Z,6.12
2019-03-27T21:11:19.959Z,22.25
2019-03-27T21:13:49.740Z,12.85
2019-03-27T21:16:19.687Z,5.95
2019-03-27T21:18:49.516Z,7.95
2019-03-27T21:21:19.296Z,6.83
2019-03-27T21:23:49.105Z,8.53
2019-03-27T21:26:18.913Z,6.25
2019-03-27T21:28:48.775Z,7.75
2019-03-27T21:31:18.573Z,5.37
2019-03-27T21:33:48.469Z,5.00
2019-03-27T21:36:18.391Z,6.63
2019-03-27T21:38:48.266Z,5.63
2019-03-27T21:41:18.308Z,9.00
2019-03-27T21:43:50.226Z,7.10
2019-03-27T21:46:20.167Z,8.58
2019-03-27T21:48:50.103Z,7.97
2019-03-27T21:51:19.976Z,7.13
2019-03-27T21:53:50.820Z,6.30
2019-03-27T21:56:20.905Z,6.90
2019-03-27T21:58:50.801Z,10.70
2019-03-27T22:01:20.668Z,8.85
2019-03-27T22:03:50.542Z,9.73
2019-03-27T22:06:20.455Z,18.75
2019-03-27T22:08:50.364Z,9.73
2019-03-27T22:11:20.263Z,9.80
2019-03-27T22:13:50.150Z,15.53
2019-03-27T22:16:20.066Z,11.53
2019-03-27T22:18:49.971Z,10.08
2019-03-27T22:21:22.266Z,12.27
2019-03-27T22:23:52.171Z,15.18
2019-03-27T22:26:22.000Z,10.28
2019-03-27T22:28:51.929Z,12.85
2019-03-27T22:31:21.858Z,11.27
2019-03-27T22:33:51.748Z,10.10
2019-03-27T22:36:21.683Z,10.00
2019-03-27T22:38:51.738Z,14.37
2019-03-27T22:41:21.664Z,12.30
2019-03-27T22:43:51.843Z,11.80
2019-03-27T22:46:21.774Z,12.98
2019-03-27T22:48:51.669Z,12.30
2019-03-27T22:51:21.630Z,15.85
2019-03-27T22:53:51.474Z,9.70
2019-03-27T22:56:21.356Z,10.83
2019-03-27T22:58:51.223Z,11.50
2019-03-27T23:01:21.103Z,11.60
2019-03-27T23:03:51.023Z,12.07
2019-03-27T23:06:20.970Z,10.43
2019-03-27T23:08:50.777Z,9.40
2019-03-27T23:11:20.660Z,11.50
2019-03-27T23:13:50.855Z,9.03
2019-03-27T23:16:20.803Z,8.95
2019-03-27T23:18:50.694Z,8.87
2019-03-27T23:21:20.543Z,8.98
2019-03-27T23:23:50.416Z,7.47
2019-03-27T23:26:20.321Z,10.33
2019-03-27T23:28:50.379Z,12.53
2019-03-27T23:31:20.310Z,6.75
2019-03-27T23:33:50.165Z,8.10
2019-03-27T23:36:20.003Z,12.03
2019-03-27T23:38:49.802Z,8.08
2019-03-27T23:41:19.549Z,8.68
2019-03-27T23:43:49.437Z,7.27
2019-03-27T23:46:19.403Z,7.77
2019-03-27T23:48:49.467Z,11.30
2019-03-27T23:51:20.515Z,5.90
2019-03-27T23:53:50.423Z,7.90
2019-03-27T23:56:21.560Z,13.20
2019-03-27T23:58:51.888Z,8.10
